createdAt,value
2022-10-29T00:00:43.084Z,13.68
2022-10-29T00:03:30.394Z,13.56
2022-10-29T00:06:03.142Z,13.69
2022-10-29T00:08:32.658Z,13.71
2022-10-29T00:11:26.283Z,13.82
2022-10-29T00:13:56.012Z,13.85
2022-10-29T00:16:24.221Z,13.87
2022-10-29T00:18:53.675Z,13.88
2022-10-29T00:21:23.903Z,13.90
2022-10-29T00:23:52.365Z,13.88
2022-10-29T00:26:22.016Z,13.92
2022-10-29T00:28:52.537Z,13.75
2022-10-29T00:31:20.635Z,13.79
2022-10-29T00:33:47.990Z,13.81
2022-10-29T00:36:17.618Z,13.79
2022-10-29T00:38:45.653Z,13.77
2022-10-29T00:41:15.641Z,13.69
2022-10-29T00:44:13.004Z,13.69
2022-10-29T00:46:43.468Z,13.67
2022-10-29T00:49:11.636Z,13.77
2022-10-29T00:51:39.442Z,13.67
2022-10-29T00:54:12.399Z,13.56
2022-10-29T00:56:47.690Z,13.63
2022-10-29T00:59:17.434Z,13.61
2022-10-29T01:01:46.901Z,13.60
2022-10-29T01:04:16.620Z,13.62
2022-10-29T01:06:45.573Z,13.61
2022-10-29T01:09:13.047Z,13.62
2022-10-29T01:11:47.258Z,13.61
2022-10-29T01:14:26.267Z,13.62
2022-10-29T01:16:59.706Z,13.56
2022-10-29T01:19:51.201Z,13.71
2022-10-29T01:22:32.079Z,13.60
2022-10-29T01:25:20.615Z,13.62
2022-10-29T01:28:01.753Z,13.57
2022-10-29T01:30:57.187Z,13.67
2022-10-29T01:33:52.003Z,13.66
2022-10-29T01:36:49.652Z,13.72
2022-10-29T01:39:37.891Z,13.85
2022-10-29T01:42:15.166Z,13.81
2022-10-29T01:45:05.322Z,13.87
2022-10-29T01:47:36.682Z,13.90
2022-10-29T01:50:08.886Z,13.96
2022-10-29T01:52:38.024Z,13.98
2022-10-29T01:55:06.068Z,14.03
2022-10-29T01:57:36.052Z,14.06
2022-10-29T02:00:07.692Z,14.16
2022-10-29T02:02:49.327Z,14.14
2022-10-29T02:05:23.730Z,14.12
2022-10-29T02:07:57.871Z,14.11
2022-10-29T02:10:39.423Z,14.12
2022-10-29T02:13:10.209Z,14.24
2022-10-29T02:16:05.801Z,14.25
2022-10-29T02:18:41.554Z,14.27
2022-10-29T02:21:08.770Z,14.25
2022-10-29T02:23:36.188Z,14.25
2022-10-29T02:26:03.473Z,14.29
2022-10-29T02:28:30.635Z,14.27
2022-10-29T02:30:57.988Z,14.28
2022-10-29T02:33:25.223Z,14.35
2022-10-29T02:35:52.381Z,14.34
2022-10-29T02:38:19.894Z,14.38
2022-10-29T02:40:47.060Z,14.38
2022-10-29T02:43:14.341Z,14.50
2022-10-29T02:45:41.897Z,14.54
2022-10-29T02:48:09.059Z,14.48
2022-10-29T02:50:36.359Z,14.55
2022-10-29T02:53:03.824Z,14.55
2022-10-29T02:55:31.040Z,14.52
2022-10-29T02:57:58.388Z,14.56
2022-10-29T03:00:26.002Z,14.55
2022-10-29T03:02:53.239Z,14.55
2022-10-29T03:05:20.671Z,14.50
2022-10-29T03:07:48.151Z,14.51
2022-10-29T03:10:15.310Z,14.50
2022-10-29T03:12:42.411Z,14.52
2022-10-29T03:15:10.360Z,14.46
2022-10-29T03:17:37.519Z,14.64
2022-10-29T03:20:05.269Z,14.61
2022-10-29T03:22:32.583Z,14.59
2022-10-29T03:24:59.874Z,14.55
2022-10-29T03:27:27.175Z,14.64
2022-10-29T03:29:54.576Z,14.66
2022-10-29T03:32:21.713Z,14.69
2022-10-29T03:34:48.882Z,14.72
2022-10-29T03:37:16.402Z,14.75
2022-10-29T03:39:43.675Z,14.81
2022-10-29T03:42:10.790Z,14.80
2022-10-29T03:44:38.138Z,14.91
2022-10-29T03:47:08.181Z,14.79
2022-10-29T03:49:35.309Z,14.78
2022-10-29T03:52:02.629Z,14.78
2022-10-29T03:54:29.948Z,14.85
2022-10-29T03:56:57.321Z,14.77
2022-10-29T03:59:24.542Z,14.77
2022-10-29T04:01:52.022Z,14.84
2022-10-29T04:04:19.294Z,14.88
2022-10-29T04:06:46.703Z,14.77
2022-10-29T04:09:13.906Z,14.67
2022-10-29T04:11:41.306Z,14.69
2022-10-29T04:14:08.746Z,14.78
2022-10-29T04:16:36.800Z,14.78
2022-10-29T04:19:04.470Z,14.62
2022-10-29T04:23:36.642Z,14.65
2022-10-29T04:29:53.952Z,14.66
2022-10-29T04:32:21.024Z,14.67
2022-10-29T04:34:48.423Z,14.51
2022-10-29T04:37:15.531Z,14.51
2022-10-29T04:39:42.674Z,14.48
2022-10-29T04:42:10.007Z,14.47
2022-10-29T04:44:37.918Z,14.53
2022-10-29T04:47:05.118Z,14.45
2022-10-29T04:49:32.860Z,14.36
2022-10-29T04:52:00.012Z,14.45
2022-10-29T04:54:27.488Z,14.43
2022-10-29T04:56:54.886Z,14.46
2022-10-29T04:59:22.371Z,14.54
2022-10-29T05:01:49.584Z,14.53
2022-10-29T05:04:16.954Z,14.71
2022-10-29T05:06:44.099Z,14.65
2022-10-29T05:09:11.448Z,14.69
2022-10-29T05:11:38.761Z,14.59
2022-10-29T05:14:06.432Z,14.62
2022-10-29T05:16:33.718Z,14.67
2022-10-29T05:19:01.275Z,14.74
2022-10-29T05:21:28.487Z,14.75
2022-10-29T05:23:55.889Z,14.71
2022-10-29T05:26:23.022Z,14.79
2022-10-29T05:28:54.229Z,14.76
2022-10-29T05:31:21.483Z,14.80
2022-10-29T05:33:51.122Z,14.84
2022-10-29T05:36:21.054Z,14.75
2022-10-29T05:38:48.411Z,14.84
2022-10-29T05:41:15.888Z,14.86
2022-10-29T05:43:43.428Z,14.91
2022-10-29T05:46:10.755Z,14.97
2022-10-29T05:48:38.361Z,15.06
2022-10-29T05:51:05.671Z,15.04
2022-10-29T05:53:33.239Z,15.04
2022-10-29T05:56:00.523Z,15.15
2022-10-29T05:58:28.051Z,15.06
2022-10-29T06:00:55.274Z,15.02
2022-10-29T06:03:23.268Z,15.10
2022-10-29T06:05:51.154Z,14.92
2022-10-29T06:08:18.862Z,15.07
2022-10-29T06:10:46.184Z,15.02
2022-10-29T06:13:18.054Z,15.01
2022-10-29T06:15:46.291Z,15.07
2022-10-29T06:18:14.252Z,15.00
2022-10-29T06:20:43.718Z,15.09
2022-10-29T06:23:12.025Z,15.06
2022-10-29T06:25:39.371Z,15.03
2022-10-29T06:28:10.054Z,15.07
2022-10-29T06:30:38.309Z,15.11
2022-10-29T06:33:06.250Z,15.14
2022-10-29T06:38:09.281Z,15.09
2022-10-29T06:40:40.846Z,15.10
2022-10-29T06:43:11.625Z,15.09
2022-10-29T06:45:39.625Z,15.09
2022-10-29T06:48:08.024Z,15.15
2022-10-29T06:50:35.487Z,15.16
2022-10-29T06:53:08.230Z,15.13
2022-10-29T06:55:35.922Z,15.20
2022-10-29T06:58:04.914Z,15.14
2022-10-29T07:00:34.127Z,15.12
2022-10-29T07:03:03.475Z,15.22
2022-10-29T07:05:32.016Z,15.10
2022-10-29T07:08:01.012Z,15.09
2022-10-29T07:10:31.332Z,15.09
2022-10-29T07:12:58.979Z,15.07
2022-10-29T07:15:29.553Z,15.07
2022-10-29T07:18:06.833Z,15.06
2022-10-29T07:20:37.965Z,15.01
2022-10-29T07:23:05.720Z,15.13
2022-10-29T07:25:33.718Z,15.07
2022-10-29T07:28:16.831Z,15.09
2022-10-29T07:30:45.312Z,15.06
2022-10-29T07:33:13.055Z,15.08
2022-10-29T07:35:40.611Z,15.14
2022-10-29T07:38:11.189Z,15.13
2022-10-29T07:40:49.552Z,15.01
2022-10-29T07:43:18.329Z,15.04
2022-10-29T07:45:49.892Z,15.01
2022-10-29T07:48:19.021Z,15.08
2022-10-29T07:50:47.243Z,15.04
2022-10-29T07:53:14.692Z,15.11
2022-10-29T07:55:41.820Z,15.22
2022-10-29T07:58:12.294Z,15.08
2022-10-29T08:00:42.098Z,15.27
2022-10-29T08:03:11.729Z,15.24
2022-10-29T08:05:39.395Z,15.23
2022-10-29T08:08:07.425Z,15.35
2022-10-29T08:10:36.090Z,15.26
2022-10-29T08:13:05.559Z,15.44
2022-10-29T08:15:34.964Z,15.30
2022-10-29T08:18:03.800Z,15.34
2022-10-29T08:20:31.407Z,15.26
2022-10-29T08:23:00.782Z,15.41
2022-10-29T08:25:28.630Z,15.28
2022-10-29T08:28:07.005Z,15.22
2022-10-29T08:30:35.270Z,15.12
2022-10-29T08:33:04.658Z,15.16
2022-10-29T08:35:33.153Z,15.19
2022-10-29T08:38:00.837Z,15.20
2022-10-29T08:40:49.900Z,15.18
2022-10-29T08:43:47.251Z,15.20
2022-10-29T08:46:41.520Z,15.27
2022-10-29T08:49:17.815Z,15.39
2022-10-29T08:51:55.453Z,15.59
2022-10-29T08:54:31.487Z,15.34
2022-10-29T08:57:06.960Z,15.30
2022-10-29T08:59:41.583Z,15.25
2022-10-29T09:02:16.827Z,15.43
2022-10-29T09:04:44.652Z,15.67
2022-10-29T09:07:36.760Z,15.64
2022-10-29T09:14:05.345Z,15.89
2022-10-29T09:16:55.149Z,16.00
2022-10-29T09:19:33.507Z,15.90
2022-10-29T09:22:03.578Z,16.14
2022-10-29T09:24:43.148Z,15.84
2022-10-29T09:27:46.275Z,15.61
2022-10-29T09:30:19.961Z,15.56
2022-10-29T09:33:02.431Z,15.58
2022-10-29T09:35:46.472Z,15.48
2022-10-29T09:38:19.851Z,15.70
2022-10-29T09:40:47.350Z,15.64
2022-10-29T09:43:45.620Z,15.69
2022-10-29T09:46:57.713Z,15.64
2022-10-29T09:49:32.324Z,15.36
2022-10-29T09:52:36.114Z,15.31
2022-10-29T09:55:06.432Z,15.32
2022-10-29T09:57:36.655Z,15.21
2022-10-29T10:00:28.677Z,15.35
2022-10-29T10:03:14.954Z,15.28
2022-10-29T10:06:02.379Z,15.16
2022-10-29T10:08:31.785Z,15.21
2022-10-29T10:11:02.984Z,15.20
2022-10-29T10:13:34.347Z,15.32
2022-10-29T10:16:05.378Z,15.37
2022-10-29T10:18:33.147Z,15.41
2022-10-29T10:21:12.192Z,15.31
2022-10-29T10:23:47.379Z,15.44
2022-10-29T10:26:34.444Z,15.24
2022-10-29T10:29:23.977Z,15.36
2022-10-29T10:32:11.021Z,15.20
2022-10-29T10:34:39.498Z,15.19
2022-10-29T10:37:09.735Z,15.42
2022-10-29T10:39:40.283Z,15.18
2022-10-29T10:42:19.771Z,15.10
2022-10-29T10:44:58.237Z,15.23
2022-10-29T10:47:30.837Z,15.16
2022-10-29T10:50:35.384Z,15.20
2022-10-29T10:53:25.441Z,15.20
2022-10-29T10:55:58.028Z,15.17
2022-10-29T10:58:35.599Z,15.08
2022-10-29T11:01:23.920Z,15.07
2022-10-29T11:04:13.112Z,15.11
2022-10-29T11:06:43.868Z,15.14
2022-10-29T11:09:26.133Z,15.22
2022-10-29T11:12:09.293Z,15.31
2022-10-29T11:14:49.955Z,15.25
2022-10-29T11:17:31.520Z,15.22
2022-10-29T11:20:18.257Z,15.19
2022-10-29T11:23:17.831Z,15.08
2022-10-29T11:25:54.740Z,15.17
2022-10-29T11:29:02.591Z,15.15
2022-10-29T11:31:57.664Z,15.19
2022-10-29T11:35:09.500Z,15.23
2022-10-29T11:38:14.305Z,15.26
2022-10-29T11:41:04.981Z,15.22
2022-10-29T11:43:33.674Z,15.42
2022-10-29T11:46:11.127Z,15.38
2022-10-29T11:48:53.705Z,15.63
2022-10-29T11:51:52.338Z,15.76
2022-10-29T11:54:44.538Z,16.21
2022-10-29T11:57:22.257Z,16.20
2022-10-29T12:00:10.088Z,16.26
2022-10-29T12:03:15.862Z,16.24
2022-10-29T12:06:30.454Z,16.23
2022-10-29T12:09:39.527Z,16.10
2022-10-29T12:12:13.044Z,16.00
2022-10-29T12:14:59.759Z,16.45
2022-10-29T12:17:43.888Z,16.66
2022-10-29T12:20:23.562Z,16.06
2022-10-29T12:23:03.956Z,16.09
2022-10-29T12:25:48.012Z,15.95
2022-10-29T12:28:36.258Z,15.80
2022-10-29T12:31:24.436Z,15.63
2022-10-29T12:33:57.498Z,15.46
2022-10-29T12:36:27.897Z,15.70
2022-10-29T12:38:57.397Z,15.32
2022-10-29T12:41:31.228Z,15.36
2022-10-29T12:44:08.890Z,15.44
2022-10-29T12:46:53.734Z,15.49
2022-10-29T12:49:30.040Z,15.56
2022-10-29T12:52:22.326Z,15.45
2022-10-29T12:54:52.677Z,15.52
2022-10-29T12:57:35.243Z,15.36
2022-10-29T13:00:23.885Z,15.56
2022-10-29T13:02:52.462Z,15.41
2022-10-29T13:05:26.002Z,15.51
2022-10-29T13:08:02.610Z,15.39
2022-10-29T13:10:33.016Z,15.16
2022-10-29T13:13:05.695Z,15.08
2022-10-29T13:15:36.133Z,15.15
2022-10-29T13:18:48.879Z,15.28
2022-10-29T13:21:53.271Z,15.16
2022-10-29T13:24:21.159Z,15.15
2022-10-29T13:27:06.077Z,15.10
2022-10-29T13:29:50.614Z,15.03
2022-10-29T13:32:31.494Z,15.11
2022-10-29T13:35:01.436Z,14.90
2022-10-29T13:37:47.033Z,15.02
2022-10-29T13:40:23.784Z,14.89
2022-10-29T13:43:18.296Z,14.97
2022-10-29T13:45:52.217Z,14.94
2022-10-29T13:48:28.239Z,14.79
2022-10-29T13:50:58.863Z,14.85
2022-10-29T13:53:37.015Z,14.62
2022-10-29T13:56:10.146Z,14.77
2022-10-29T13:58:40.814Z,14.60
2022-10-29T14:01:11.985Z,14.67
2022-10-29T14:03:58.516Z,14.48
2022-10-29T14:06:33.086Z,14.58
2022-10-29T14:09:15.252Z,14.65
2022-10-29T14:11:48.400Z,14.57
2022-10-29T14:14:27.226Z,14.51
2022-10-29T14:17:17.508Z,14.59
2022-10-29T14:19:50.340Z,14.65
2022-10-29T14:22:36.606Z,14.52
2022-10-29T14:25:22.907Z,14.40
2022-10-29T14:28:19.102Z,14.41
2022-10-29T14:30:48.316Z,14.43
2022-10-29T14:33:23.685Z,14.46
2022-10-29T14:35:53.733Z,14.37
2022-10-29T14:38:33.607Z,14.35
2022-10-29T14:41:01.241Z,14.21
2022-10-29T14:43:29.866Z,14.17
2022-10-29T14:46:10.911Z,14.09
2022-10-29T14:48:40.025Z,14.08
2022-10-29T14:51:07.372Z,13.91
2022-10-29T14:53:38.327Z,13.91
2022-10-29T14:56:11.540Z,13.80
2022-10-29T14:58:41.391Z,13.76
2022-10-29T15:01:14.598Z,13.62
2022-10-29T15:03:42.252Z,13.54
2022-10-29T15:06:19.278Z,13.59
2022-10-29T15:09:07.664Z,13.56
2022-10-29T15:11:34.962Z,13.36
2022-10-29T15:14:04.490Z,13.47
2022-10-29T15:16:36.710Z,13.42
2022-10-29T15:19:15.498Z,13.29
2022-10-29T15:21:43.325Z,13.40
2022-10-29T15:24:20.732Z,13.25
2022-10-29T15:26:52.302Z,13.19
2022-10-29T15:29:32.195Z,13.12
2022-10-29T15:32:00.924Z,13.14
2022-10-29T15:34:36.337Z,13.17
2022-10-29T15:37:18.968Z,13.14
2022-10-29T15:39:56.796Z,13.15
2022-10-29T15:42:27.893Z,13.08
2022-10-29T15:45:07.954Z,13.09
2022-10-29T15:47:38.068Z,13.11
2022-10-29T15:50:10.183Z,13.02
2022-10-29T15:52:41.318Z,13.01
2022-10-29T15:55:26.343Z,13.03
2022-10-29T15:57:59.739Z,12.99
2022-10-29T16:00:28.069Z,13.05
2022-10-29T16:03:00.318Z,12.94
2022-10-29T16:05:27.602Z,12.97
2022-10-29T16:07:55.238Z,12.90
2022-10-29T16:10:22.491Z,12.86
2022-10-29T16:12:52.672Z,12.95
2022-10-29T16:15:20.473Z,12.93
2022-10-29T16:17:47.977Z,12.92
2022-10-29T16:20:18.053Z,12.90
2022-10-29T16:22:48.207Z,12.89
2022-10-29T16:25:27.233Z,12.99
2022-10-29T16:27:55.636Z,12.91
2022-10-29T16:30:24.203Z,12.77
2022-10-29T16:32:52.633Z,12.82
2022-10-29T16:35:21.628Z,12.73
2022-10-29T16:37:49.707Z,12.63
2022-10-29T16:40:18.305Z,12.56
2022-10-29T16:42:46.124Z,12.52
2022-10-29T16:45:20.242Z,12.53
2022-10-29T16:47:47.902Z,12.46
2022-10-29T16:50:21.579Z,12.50
2022-10-29T16:53:11.696Z,12.40
2022-10-29T16:55:40.201Z,12.40
2022-10-29T16:58:11.771Z,12.37
2022-10-29T17:00:39.617Z,12.42
2022-10-29T17:03:11.341Z,12.31
2022-10-29T17:05:44.037Z,12.33
2022-10-29T17:08:12.885Z,12.35
2022-10-29T17:10:40.939Z,12.41
2022-10-29T17:13:11.310Z,12.39
2022-10-29T17:15:42.051Z,12.28
2022-10-29T17:18:09.790Z,12.34
2022-10-29T17:20:37.273Z,12.33
2022-10-29T17:23:04.766Z,12.25
2022-10-29T17:25:32.095Z,12.24
2022-10-29T17:28:00.202Z,12.27
2022-10-29T17:30:27.934Z,12.26
2022-10-29T17:32:56.000Z,12.26
2022-10-29T17:35:23.502Z,12.26
2022-10-29T17:37:51.116Z,12.17
2022-10-29T17:40:18.424Z,12.18
2022-10-29T17:42:46.099Z,12.13
2022-10-29T17:45:14.561Z,12.22
2022-10-29T17:47:41.935Z,12.05
2022-10-29T17:50:10.181Z,12.08
2022-10-29T17:52:37.765Z,11.93
2022-10-29T17:55:05.754Z,11.97
2022-10-29T17:57:33.603Z,12.02
2022-10-29T18:00:01.276Z,12.09
2022-10-29T18:02:28.954Z,12.14
2022-10-29T18:05:48.566Z,11.98
2022-10-29T18:08:17.573Z,11.88
2022-10-29T18:10:45.231Z,11.91
2022-10-29T18:13:12.895Z,11.91
2022-10-29T18:15:40.954Z,11.87
2022-10-29T18:18:08.701Z,11.84
2022-10-29T18:20:38.539Z,11.85
2022-10-29T18:23:06.192Z,11.91
2022-10-29T18:25:33.854Z,11.92
2022-10-29T18:28:01.703Z,11.94
2022-10-29T18:30:29.002Z,11.90
2022-10-29T18:32:56.840Z,11.81
2022-10-29T18:35:27.367Z,11.83
2022-10-29T18:37:55.098Z,11.85
2022-10-29T18:40:22.948Z,11.85
2022-10-29T18:42:50.301Z,11.92
2022-10-29T18:45:17.801Z,11.91
2022-10-29T18:47:45.691Z,11.79
2022-10-29T18:50:13.314Z,11.79
2022-10-29T18:52:40.816Z,11.80
2022-10-29T18:55:10.174Z,11.89
2022-10-29T18:57:38.685Z,11.87
2022-10-29T19:00:08.023Z,11.85
2022-10-29T19:02:35.603Z,11.98
2022-10-29T19:05:03.540Z,11.87
2022-10-29T19:07:31.502Z,11.93
2022-10-29T19:09:59.533Z,11.80
2022-10-29T19:12:26.985Z,11.79
2022-10-29T19:14:54.563Z,11.90
2022-10-29T19:17:21.796Z,11.81
2022-10-29T19:19:50.059Z,11.81
2022-10-29T19:22:17.972Z,11.78
2022-10-29T19:24:46.104Z,11.80
2022-10-29T19:27:14.052Z,11.85
2022-10-29T19:29:41.776Z,11.78
2022-10-29T19:32:09.710Z,11.87
2022-10-29T19:37:06.972Z,11.83
2022-10-29T19:39:34.903Z,11.79
2022-10-29T19:42:03.522Z,11.85
2022-10-29T19:44:31.044Z,11.73
2022-10-29T19:46:58.706Z,11.77
2022-10-29T19:49:25.989Z,11.75
2022-10-29T19:51:53.646Z,11.79
2022-10-29T19:54:21.120Z,11.81
2022-10-29T19:56:48.694Z,11.68
2022-10-29T19:59:16.292Z,11.87
2022-10-29T20:01:46.700Z,11.87
2022-10-29T20:04:15.521Z,11.78
2022-10-29T20:06:43.425Z,11.76
2022-10-29T20:09:11.075Z,11.82
2022-10-29T20:11:38.728Z,11.98
2022-10-29T20:14:06.063Z,12.09
2022-10-29T20:16:33.933Z,11.93
2022-10-29T20:19:01.798Z,11.93
2022-10-29T20:21:29.419Z,12.08
2022-10-29T20:23:57.302Z,11.96
2022-10-29T20:26:24.820Z,11.98
2022-10-29T20:28:52.328Z,12.12
2022-10-29T20:31:21.627Z,12.08
2022-10-29T20:33:57.169Z,12.03
2022-10-29T20:36:27.865Z,12.10
2022-10-29T20:38:55.849Z,12.12
2022-10-29T20:41:24.301Z,12.16
2022-10-29T20:44:01.350Z,12.08
2022-10-29T20:46:29.175Z,11.95
2022-10-29T20:48:57.675Z,12.02
2022-10-29T20:51:25.608Z,12.03
2022-10-29T20:53:53.445Z,12.01
2022-10-29T20:56:23.364Z,12.00
2022-10-29T20:58:50.785Z,11.96
2022-10-29T21:01:20.466Z,11.90
2022-10-29T21:03:50.175Z,11.84
2022-10-29T21:06:18.578Z,11.95
2022-10-29T21:08:47.562Z,11.86
2022-10-29T21:11:17.099Z,11.88
2022-10-29T21:13:45.638Z,11.94
2022-10-29T21:16:33.372Z,11.96
2022-10-29T21:19:02.240Z,11.92
2022-10-29T21:21:30.170Z,11.91
2022-10-29T21:23:58.065Z,12.03
2022-10-29T21:26:27.795Z,12.03
2022-10-29T21:28:56.444Z,12.09
2022-10-29T21:31:24.800Z,11.99
2022-10-29T21:33:54.295Z,12.07
2022-10-29T21:36:22.384Z,12.10
2022-10-29T21:38:50.495Z,12.14
2022-10-29T21:41:18.620Z,12.11
2022-10-29T21:43:50.228Z,12.15
2022-10-29T21:47:10.936Z,12.17
2022-10-29T21:50:04.397Z,12.25
2022-10-29T21:52:32.206Z,12.28
2022-10-29T21:54:59.769Z,12.26
2022-10-29T21:57:27.011Z,12.27
2022-10-29T21:59:54.273Z,12.27
2022-10-29T22:02:21.836Z,12.31
2022-10-29T22:04:49.186Z,12.29
2022-10-29T22:07:16.572Z,12.27
2022-10-29T22:09:44.247Z,12.24
2022-10-29T22:12:11.513Z,12.27
2022-10-29T22:14:38.952Z,12.21
2022-10-29T22:17:06.626Z,12.25
2022-10-29T22:19:33.906Z,12.21
2022-10-29T22:22:01.231Z,12.16
2022-10-29T22:24:29.092Z,12.29
2022-10-29T22:26:56.561Z,12.30
2022-10-29T22:29:23.990Z,12.24
2022-10-29T22:31:51.358Z,12.20
2022-10-29T22:34:19.035Z,12.26
2022-10-29T22:36:46.441Z,12.30
2022-10-29T22:39:13.863Z,12.29
2022-10-29T22:41:41.532Z,12.25
2022-10-29T22:44:08.773Z,12.26
2022-10-29T22:46:36.470Z,12.22
2022-10-29T22:49:03.704Z,12.28
2022-10-29T22:51:33.923Z,12.23
2022-10-29T22:54:01.753Z,12.21
2022-10-29T22:56:31.953Z,12.16
2022-10-29T22:58:59.357Z,12.18
2022-10-29T23:01:29.570Z,12.12
2022-10-29T23:03:58.964Z,12.05
2022-10-29T23:06:26.200Z,11.99
2022-10-29T23:08:56.193Z,11.89
2022-10-29T23:11:25.948Z,11.97
2022-10-29T23:13:54.655Z,11.90
2022-10-29T23:16:23.854Z,11.94
2022-10-29T23:18:53.089Z,11.84
2022-10-29T23:21:21.492Z,11.88
2022-10-29T23:23:52.527Z,11.79
2022-10-29T23:26:20.903Z,11.69
2022-10-29T23:28:49.156Z,11.61
2022-10-29T23:31:19.316Z,11.59
2022-10-29T23:33:48.705Z,11.63
2022-10-29T23:36:17.005Z,11.57
2022-10-29T23:38:44.464Z,11.61
2022-10-29T23:41:12.417Z,11.64
2022-10-29T23:43:39.862Z,11.67
2022-10-29T23:46:07.149Z,11.68
2022-10-29T23:48:34.287Z,11.53
2022-10-29T23:51:01.958Z,11.53
2022-10-29T23:53:29.787Z,11.50
2022-10-29T23:55:56.957Z,11.41
2022-10-29T23:58:24.190Z,11.37
